createdAt,value
2019-02-02T00:01:43.890Z,4.30
2019-02-02T00:04:13.137Z,4.50
2019-02-02T00:06:42.402Z,4.60
2019-02-02T00:09:11.675Z,4.70
2019-02-02T00:11:41.033Z,4.80
2019-02-02T00:14:10.201Z,4.90
2019-02-02T00:16:39.548Z,4.90
2019-02-02T00:19:08.796Z,4.90
2019-02-02T00:21:38.054Z,5.00
2019-02-02T00:24:07.273Z,5.10
2019-02-02T00:26:36.444Z,5.10
2019-02-02T00:29:05.769Z,5.10
2019-02-02T00:31:35.030Z,5.10
2019-02-02T00:34:05.651Z,5.10
2019-02-02T00:36:34.842Z,5.00
2019-02-02T00:39:06.220Z,5.00
2019-02-02T00:41:35.457Z,5.00
2019-02-02T00:44:04.824Z,4.80
2019-02-02T00:46:34.129Z,4.70
2019-02-02T00:49:03.426Z,4.60
2019-02-02T00:51:32.696Z,4.60
2019-02-02T00:54:01.915Z,4.60
2019-02-02T00:56:31.164Z,4.40
2019-02-02T00:59:00.647Z,4.30
2019-02-02T01:01:29.964Z,4.20
2019-02-02T01:03:59.290Z,4.20
2019-02-02T01:06:28.612Z,4.30
2019-02-02T01:09:00.438Z,4.30
2019-02-02T01:11:29.923Z,4.10
2019-02-02T01:14:06.191Z,4.00
2019-02-02T01:16:40.861Z,4.00
2019-02-02T01:19:15.064Z,3.80
2019-02-02T01:21:50.811Z,3.60
2019-02-02T01:24:25.447Z,3.70
2019-02-02T01:27:02.561Z,3.70
2019-02-02T01:29:38.422Z,3.70
2019-02-02T01:32:14.858Z,3.90
2019-02-02T01:34:53.078Z,3.90
2019-02-02T01:37:27.818Z,3.90
2019-02-02T01:40:03.150Z,3.80
2019-02-02T01:42:38.926Z,3.90
2019-02-02T01:45:17.591Z,3.80
2019-02-02T01:47:49.560Z,3.80
2019-02-02T01:50:22.834Z,4.00
2019-02-02T01:52:54.466Z,4.00
2019-02-02T01:55:23.956Z,4.30
2019-02-02T01:57:53.270Z,4.40
2019-02-02T02:00:28.930Z,4.30
2019-02-02T02:03:01.094Z,4.10
2019-02-02T02:05:38.439Z,4.00
2019-02-02T02:08:12.171Z,4.00
2019-02-02T02:10:43.597Z,3.90
2019-02-02T02:13:18.761Z,4.00
2019-02-02T02:15:50.523Z,4.00
2019-02-02T02:18:22.043Z,3.90
2019-02-02T02:20:57.216Z,3.80
2019-02-02T02:23:36.172Z,3.60
2019-02-02T02:26:18.478Z,3.80
2019-02-02T02:28:51.518Z,4.10
2019-02-02T02:31:20.980Z,4.30
2019-02-02T02:33:50.464Z,4.30
2019-02-02T02:36:19.750Z,4.40
2019-02-02T02:38:52.301Z,4.40
2019-02-02T02:41:21.580Z,4.30
2019-02-02T02:43:50.887Z,4.40
2019-02-02T02:46:20.114Z,4.50
2019-02-02T02:48:49.558Z,4.50
2019-02-02T02:51:18.710Z,4.60
2019-02-02T02:53:47.898Z,4.70
2019-02-02T02:56:17.149Z,4.70
2019-02-02T02:58:46.442Z,4.70
2019-02-02T03:01:15.593Z,4.80
2019-02-02T03:03:44.825Z,4.80
2019-02-02T03:06:14.059Z,4.90
2019-02-02T03:08:43.204Z,4.80
2019-02-02T03:11:12.364Z,4.80
2019-02-02T03:13:41.592Z,4.80
2019-02-02T03:16:10.827Z,4.70
2019-02-02T03:18:40.187Z,4.70
2019-02-02T03:21:09.489Z,4.70
2019-02-02T03:23:38.729Z,4.60
2019-02-02T03:26:07.953Z,4.60
2019-02-02T03:28:37.233Z,4.60
2019-02-02T03:31:06.495Z,4.40
2019-02-02T03:33:35.982Z,4.50
2019-02-02T03:36:07.133Z,4.20
2019-02-02T03:38:37.937Z,3.80
2019-02-02T03:41:12.608Z,3.70
2019-02-02T03:43:52.401Z,3.70
2019-02-02T03:46:24.665Z,3.70
2019-02-02T03:48:55.700Z,3.80
2019-02-02T03:51:27.659Z,3.80
2019-02-02T03:54:13.615Z,3.70
2019-02-02T03:56:52.300Z,3.70
2019-02-02T03:59:25.153Z,3.70
2019-02-02T04:02:01.508Z,3.70
2019-02-02T04:04:37.140Z,3.60
2019-02-02T04:07:14.051Z,3.60
2019-02-02T04:09:54.708Z,3.80
2019-02-02T04:12:30.047Z,3.80
2019-02-02T04:15:02.893Z,3.80
2019-02-02T04:17:38.572Z,3.80
2019-02-02T04:20:14.176Z,3.80
2019-02-02T04:22:45.878Z,3.70
2019-02-02T04:25:19.019Z,3.60
2019-02-02T04:27:52.361Z,3.60
2019-02-02T04:30:28.781Z,3.80
2019-02-02T04:33:03.132Z,4.00
2019-02-02T04:35:38.864Z,4.00
2019-02-02T04:38:10.704Z,3.70
2019-02-02T04:40:44.662Z,3.70
2019-02-02T04:43:15.699Z,3.60
2019-02-02T04:45:46.787Z,3.50
2019-02-02T04:48:17.208Z,3.40
2019-02-02T04:50:51.036Z,3.50
2019-02-02T04:53:22.536Z,3.60
2019-02-02T04:55:53.473Z,3.90
2019-02-02T04:58:23.503Z,4.10
2019-02-02T05:01:15.606Z,4.20
2019-02-02T05:03:45.231Z,4.10
2019-02-02T05:06:14.733Z,4.20
2019-02-02T05:08:43.994Z,4.40
2019-02-02T05:11:13.326Z,4.50
2019-02-02T05:13:51.862Z,4.30
2019-02-02T05:16:27.953Z,4.00
2019-02-02T05:19:03.314Z,3.80
2019-02-02T05:21:37.253Z,3.80
2019-02-02T05:24:22.133Z,3.90
2019-02-02T05:26:54.455Z,4.00
2019-02-02T05:29:23.963Z,4.10
2019-02-02T05:31:53.266Z,4.30
2019-02-02T05:34:22.815Z,4.30
2019-02-02T05:36:52.206Z,4.30
2019-02-02T05:39:24.870Z,4.20
2019-02-02T05:41:55.233Z,4.00
2019-02-02T05:44:32.864Z,3.90
2019-02-02T05:47:09.286Z,3.60
2019-02-02T05:49:43.436Z,3.30
2019-02-02T05:52:17.754Z,3.30
2019-02-02T05:54:49.030Z,3.20
2019-02-02T05:57:21.220Z,3.10
2019-02-02T05:59:53.002Z,3.00
2019-02-02T06:02:23.387Z,2.90
2019-02-02T06:04:53.291Z,2.90
2019-02-02T06:07:23.248Z,2.80
2019-02-02T06:09:53.069Z,2.60
2019-02-02T06:12:35.546Z,2.40
2019-02-02T06:15:05.923Z,2.40
2019-02-02T06:17:36.280Z,2.20
2019-02-02T06:20:07.842Z,2.20
2019-02-02T06:22:38.318Z,2.10
2019-02-02T06:25:10.568Z,2.20
2019-02-02T06:27:41.468Z,2.20
2019-02-02T06:30:17.775Z,2.20
2019-02-02T06:32:48.569Z,2.20
2019-02-02T06:35:20.122Z,2.20
2019-02-02T06:37:50.345Z,2.10
2019-02-02T06:40:21.259Z,2.20
2019-02-02T06:42:52.039Z,2.20
2019-02-02T06:45:27.724Z,2.20
2019-02-02T06:47:57.951Z,2.30
2019-02-02T06:50:31.718Z,2.20
2019-02-02T06:53:02.786Z,2.10
2019-02-02T06:55:34.765Z,2.10
2019-02-02T06:58:06.082Z,2.10
2019-02-02T07:00:36.256Z,2.10
2019-02-02T07:03:06.521Z,2.20
2019-02-02T07:05:39.049Z,2.20
2019-02-02T07:08:09.884Z,2.20
2019-02-02T07:10:40.141Z,2.10
2019-02-02T07:13:12.288Z,2.00
2019-02-02T07:15:45.576Z,2.10
2019-02-02T07:18:17.914Z,2.10
2019-02-02T07:20:49.127Z,2.20
2019-02-02T07:23:20.440Z,2.20
2019-02-02T07:25:51.994Z,2.20
2019-02-02T07:28:22.272Z,2.30
2019-02-02T07:30:53.781Z,2.40
2019-02-02T07:33:24.660Z,2.40
2019-02-02T07:35:57.265Z,2.30
2019-02-02T07:38:27.459Z,2.40
2019-02-02T07:40:57.916Z,2.50
2019-02-02T07:43:28.467Z,2.40
2019-02-02T07:46:00.288Z,2.40
2019-02-02T07:48:30.826Z,2.50
2019-02-02T07:51:02.070Z,2.40
2019-02-02T07:53:36.270Z,2.60
2019-02-02T07:56:10.255Z,2.90
2019-02-02T07:58:43.653Z,3.10
2019-02-02T08:01:17.402Z,3.00
2019-02-02T08:03:54.924Z,2.80
2019-02-02T08:06:26.780Z,2.80
2019-02-02T08:08:58.906Z,2.70
2019-02-02T08:11:31.263Z,2.60
2019-02-02T08:14:02.059Z,2.70
2019-02-02T08:16:41.728Z,2.90
2019-02-02T08:19:14.825Z,3.00
2019-02-02T08:21:46.410Z,3.10
2019-02-02T08:24:20.629Z,3.20
2019-02-02T08:26:51.803Z,3.40
2019-02-02T08:29:25.268Z,3.50
2019-02-02T08:31:58.404Z,3.50
2019-02-02T08:34:30.498Z,3.60
2019-02-02T08:37:00.703Z,3.70
2019-02-02T08:39:33.506Z,3.80
2019-02-02T08:42:10.509Z,3.80
2019-02-02T08:44:40.148Z,3.90
2019-02-02T08:47:10.251Z,3.90
2019-02-02T08:49:40.377Z,4.00
2019-02-02T08:52:09.887Z,4.10
2019-02-02T08:54:39.200Z,4.20
2019-02-02T08:57:08.473Z,4.20
2019-02-02T08:59:37.806Z,4.30
2019-02-02T09:02:07.237Z,4.30
2019-02-02T09:04:36.660Z,4.20
2019-02-02T09:07:06.809Z,4.20
2019-02-02T09:09:40.326Z,4.00
2019-02-02T09:12:09.790Z,4.00
2019-02-02T09:14:39.116Z,4.20
2019-02-02T09:17:08.461Z,4.30
2019-02-02T09:19:37.765Z,4.50
2019-02-02T09:22:07.043Z,4.60
2019-02-02T09:24:36.294Z,4.70
2019-02-02T09:27:05.602Z,4.70
2019-02-02T09:29:34.924Z,4.60
2019-02-02T09:32:04.388Z,4.70
2019-02-02T09:34:33.645Z,4.80
2019-02-02T09:37:02.889Z,4.90
2019-02-02T09:39:32.120Z,5.00
2019-02-02T09:42:01.439Z,5.10
2019-02-02T09:44:30.639Z,5.20
2019-02-02T09:46:59.917Z,5.20
2019-02-02T09:49:29.139Z,5.30
2019-02-02T09:51:58.401Z,5.30
2019-02-02T09:54:27.651Z,5.30
2019-02-02T09:56:56.842Z,5.40
2019-02-02T09:59:26.094Z,5.60
2019-02-02T10:01:55.346Z,5.70
2019-02-02T10:04:24.534Z,5.80
2019-02-02T10:06:53.786Z,5.90
2019-02-02T10:09:23.061Z,6.00
2019-02-02T10:11:52.366Z,6.10
2019-02-02T10:14:21.708Z,6.20
2019-02-02T10:16:51.039Z,6.30
2019-02-02T10:19:20.424Z,6.30
2019-02-02T10:21:49.932Z,6.40
2019-02-02T10:24:19.217Z,6.40
2019-02-02T10:26:48.549Z,6.50
2019-02-02T10:29:17.807Z,6.60
2019-02-02T10:31:47.154Z,6.60
2019-02-02T10:34:16.466Z,6.70
2019-02-02T10:36:45.712Z,6.70
2019-02-02T10:39:15.136Z,6.70
2019-02-02T10:41:44.415Z,6.70
2019-02-02T10:44:13.623Z,6.70
2019-02-02T10:46:42.903Z,6.70
2019-02-02T10:49:12.207Z,6.60
2019-02-02T10:51:41.482Z,6.70
2019-02-02T10:54:10.715Z,6.70
2019-02-02T10:56:41.288Z,6.70
2019-02-02T10:59:10.673Z,6.70
2019-02-02T11:01:50.511Z,6.80
2019-02-02T11:04:11.057Z,6.80
2019-02-02T11:06:40.503Z,6.90
2019-02-02T11:09:10.608Z,7.00
2019-02-02T11:11:40.266Z,7.00
2019-02-02T11:14:09.912Z,7.20
2019-02-02T11:16:39.396Z,7.20
2019-02-02T11:19:08.772Z,7.30
2019-02-02T11:21:38.229Z,7.40
2019-02-02T11:24:07.506Z,7.40
2019-02-02T11:26:36.902Z,7.40
2019-02-02T11:29:06.151Z,7.50
2019-02-02T11:31:35.479Z,7.60
2019-02-02T11:34:04.817Z,7.60
2019-02-02T11:36:34.047Z,7.60
2019-02-02T11:39:04.689Z,7.70
2019-02-02T11:41:33.976Z,7.70
2019-02-02T11:44:03.234Z,7.70
2019-02-02T11:46:32.501Z,7.70
2019-02-02T11:49:01.777Z,7.70
2019-02-02T11:51:31.083Z,7.80
2019-02-02T11:54:00.333Z,7.90
2019-02-02T11:56:29.583Z,7.90
2019-02-02T11:58:58.821Z,8.00
2019-02-02T12:01:28.090Z,8.10
2019-02-02T12:03:57.329Z,8.10
2019-02-02T12:06:26.621Z,8.10
2019-02-02T12:08:55.878Z,8.10
2019-02-02T12:11:25.144Z,8.10
2019-02-02T12:13:56.497Z,8.20
2019-02-02T12:16:25.669Z,8.10
2019-02-02T12:18:54.933Z,8.10
2019-02-02T12:21:24.207Z,8.20
2019-02-02T12:23:53.530Z,8.30
2019-02-02T12:26:22.848Z,8.30
2019-02-02T12:28:52.271Z,8.30
2019-02-02T12:31:21.486Z,8.30
2019-02-02T12:33:50.708Z,8.30
2019-02-02T12:36:19.975Z,8.30
2019-02-02T12:38:49.156Z,8.40
2019-02-02T12:41:18.444Z,8.40
2019-02-02T12:43:47.601Z,8.40
2019-02-02T12:46:16.885Z,8.40
2019-02-02T12:48:46.076Z,8.40
2019-02-02T12:51:15.213Z,8.50
2019-02-02T12:53:44.492Z,8.50
2019-02-02T12:56:13.640Z,8.60
2019-02-02T12:58:42.860Z,8.60
2019-02-02T13:01:13.926Z,8.60
2019-02-02T13:03:43.067Z,8.40
2019-02-02T13:06:12.334Z,8.40
2019-02-02T13:08:41.876Z,8.40
2019-02-02T13:11:11.153Z,8.30
2019-02-02T13:13:42.600Z,8.20
2019-02-02T13:16:11.426Z,8.10
2019-02-02T13:18:40.665Z,8.10
2019-02-02T13:21:13.961Z,8.20
2019-02-02T13:23:43.209Z,8.20
2019-02-02T13:26:12.457Z,8.20
2019-02-02T13:28:41.733Z,8.20
2019-02-02T13:31:10.972Z,8.30
2019-02-02T13:33:40.149Z,8.30
2019-02-02T13:36:09.382Z,8.30
2019-02-02T13:38:39.706Z,8.20
2019-02-02T13:41:08.955Z,8.20
2019-02-02T13:43:38.204Z,8.10
2019-02-02T13:46:07.354Z,8.10
2019-02-02T13:48:36.602Z,8.10
2019-02-02T13:51:06.265Z,8.10
2019-02-02T13:53:35.561Z,8.20
2019-02-02T13:56:04.803Z,8.10
2019-02-02T13:58:34.050Z,8.10
2019-02-02T14:01:03.270Z,8.10
2019-02-02T14:03:32.729Z,8.00
2019-02-02T14:06:01.956Z,7.70
2019-02-02T14:08:31.116Z,7.30
2019-02-02T14:11:00.367Z,7.10
2019-02-02T14:13:29.537Z,7.10
2019-02-02T14:15:58.753Z,7.30
2019-02-02T14:18:27.978Z,7.30
2019-02-02T14:20:57.133Z,7.20
2019-02-02T14:23:26.352Z,7.30
2019-02-02T14:25:55.531Z,7.30
2019-02-02T14:28:28.400Z,7.10
2019-02-02T14:30:55.665Z,7.00
2019-02-02T14:33:24.928Z,7.00
2019-02-02T14:35:54.104Z,7.00
2019-02-02T14:38:23.373Z,7.00
2019-02-02T14:40:52.545Z,6.90
2019-02-02T14:43:21.804Z,6.90
2019-02-02T14:45:50.965Z,6.90
2019-02-02T14:48:20.218Z,7.00
2019-02-02T14:50:49.464Z,7.10
2019-02-02T14:53:18.645Z,7.10
2019-02-02T14:55:47.817Z,7.20
2019-02-02T14:58:17.101Z,7.20
2019-02-02T15:00:46.342Z,7.20
2019-02-02T15:03:25.524Z,7.10
2019-02-02T15:05:47.697Z,6.90
2019-02-02T15:08:16.954Z,7.00
2019-02-02T15:10:46.209Z,7.00
2019-02-02T15:13:15.454Z,6.90
2019-02-02T15:15:44.705Z,6.80
2019-02-02T15:18:13.965Z,6.80
2019-02-02T15:20:44.061Z,6.70
2019-02-02T15:23:13.280Z,6.60
2019-02-02T15:25:43.046Z,6.50
2019-02-02T15:28:12.332Z,6.30
2019-02-02T15:30:41.521Z,6.20
2019-02-02T15:33:10.748Z,6.00
2019-02-02T15:35:39.999Z,6.00
2019-02-02T15:38:09.267Z,6.00
2019-02-02T15:40:38.426Z,6.00
2019-02-02T15:43:07.737Z,6.10
2019-02-02T15:45:37.059Z,6.10
2019-02-02T15:48:06.230Z,6.10
2019-02-02T15:50:35.417Z,6.00
2019-02-02T15:53:04.749Z,6.10
2019-02-02T15:55:33.942Z,6.10
2019-02-02T15:58:03.220Z,6.00
2019-02-02T16:00:34.185Z,6.10
2019-02-02T16:03:03.490Z,6.10
2019-02-02T16:05:33.018Z,6.00
2019-02-02T16:08:06.619Z,5.90
2019-02-02T16:10:36.116Z,5.80
2019-02-02T16:13:05.422Z,5.70
2019-02-02T16:15:34.821Z,5.60
2019-02-02T16:18:04.833Z,5.70
2019-02-02T16:20:36.478Z,5.80
2019-02-02T16:23:06.290Z,5.90
2019-02-02T16:25:35.600Z,6.00
2019-02-02T16:28:05.036Z,6.00
2019-02-02T16:30:34.373Z,6.10
2019-02-02T16:33:03.569Z,6.00
2019-02-02T16:35:33.158Z,6.20
2019-02-02T16:38:02.491Z,6.30
2019-02-02T16:40:31.845Z,6.50
2019-02-02T16:43:01.346Z,6.60
2019-02-02T16:45:31.326Z,6.70
2019-02-02T16:48:00.948Z,6.70
2019-02-02T16:50:30.437Z,6.80
2019-02-02T16:52:59.707Z,6.80
2019-02-02T16:55:28.984Z,6.80
2019-02-02T16:57:58.207Z,6.80
2019-02-02T17:00:32.243Z,6.80
2019-02-02T17:03:01.445Z,6.70
2019-02-02T17:05:30.723Z,6.70
2019-02-02T17:08:00.053Z,6.70
2019-02-02T17:10:34.391Z,6.70
2019-02-02T17:13:04.150Z,6.70
2019-02-02T17:15:33.411Z,6.70
2019-02-02T17:18:02.624Z,6.70
2019-02-02T17:20:38.901Z,6.70
2019-02-02T17:23:08.260Z,6.60
2019-02-02T17:25:37.740Z,6.60
2019-02-02T17:28:07.671Z,6.50
2019-02-02T17:30:37.096Z,6.40
2019-02-02T17:33:11.833Z,6.30
2019-02-02T17:35:41.017Z,6.30
2019-02-02T17:38:10.348Z,6.00
2019-02-02T17:40:39.662Z,6.00
2019-02-02T17:43:08.830Z,6.00
2019-02-02T17:45:38.032Z,5.90
2019-02-02T17:48:08.121Z,5.70
2019-02-02T17:50:37.465Z,5.40
2019-02-02T17:53:09.460Z,5.30
2019-02-02T17:55:38.672Z,5.20
2019-02-02T17:58:07.840Z,5.10
2019-02-02T18:00:54.368Z,5.20
2019-02-02T18:03:23.638Z,5.20
2019-02-02T18:05:52.949Z,5.20
2019-02-02T18:08:22.236Z,5.20
2019-02-02T18:10:51.833Z,5.10
2019-02-02T18:13:30.207Z,5.10
2019-02-02T18:15:59.791Z,5.10
2019-02-02T18:18:29.263Z,5.10
2019-02-02T18:20:58.885Z,5.00
2019-02-02T18:23:28.460Z,5.00
2019-02-02T18:25:58.084Z,5.20
2019-02-02T18:28:27.711Z,5.30
2019-02-02T18:30:57.344Z,5.40
2019-02-02T18:33:26.797Z,5.30
2019-02-02T18:35:56.208Z,5.20
2019-02-02T18:38:25.730Z,5.00
2019-02-02T18:40:55.173Z,4.90
2019-02-02T18:43:24.742Z,5.00
2019-02-02T18:45:54.315Z,5.00
2019-02-02T18:48:23.810Z,5.30
2019-02-02T18:50:53.222Z,5.50
2019-02-02T18:53:22.684Z,5.60
2019-02-02T18:55:59.033Z,5.70
2019-02-02T18:58:28.295Z,5.70
2019-02-02T19:00:57.585Z,5.80
2019-02-02T19:03:26.829Z,5.90
2019-02-02T19:05:56.134Z,6.00
2019-02-02T19:08:25.360Z,6.10
2019-02-02T19:10:54.686Z,6.20
2019-02-02T19:13:23.965Z,6.20
2019-02-02T19:15:53.228Z,6.20
2019-02-02T19:18:22.502Z,6.20
2019-02-02T19:20:51.762Z,6.20
2019-02-02T19:23:25.402Z,6.30
2019-02-02T19:25:52.059Z,6.30
2019-02-02T19:28:21.352Z,6.30
2019-02-02T19:30:53.454Z,6.40
2019-02-02T19:33:21.616Z,6.40
2019-02-02T19:35:50.864Z,6.50
2019-02-02T19:38:20.642Z,6.40
2019-02-02T19:40:49.905Z,6.30
2019-02-02T19:43:19.393Z,6.20
2019-02-02T19:45:48.715Z,6.20
2019-02-02T19:48:17.984Z,6.10
2019-02-02T19:50:47.411Z,5.80
2019-02-02T19:53:16.803Z,5.60
2019-02-02T19:55:46.168Z,5.40
2019-02-02T19:58:15.460Z,5.30
2019-02-02T20:00:45.028Z,5.20
2019-02-02T20:03:14.320Z,5.30
2019-02-02T20:05:43.563Z,5.50
2019-02-02T20:08:12.857Z,5.60
2019-02-02T20:10:42.105Z,5.80
2019-02-02T20:13:11.516Z,5.80
2019-02-02T20:15:40.887Z,5.70
2019-02-02T20:18:10.729Z,5.70
2019-02-02T20:20:40.037Z,5.80
2019-02-02T20:23:09.314Z,5.90
2019-02-02T20:25:38.486Z,5.90
2019-02-02T20:28:07.679Z,6.00
2019-02-02T20:30:36.925Z,6.10
2019-02-02T20:33:06.287Z,6.10
2019-02-02T20:35:42.110Z,6.10
2019-02-02T20:38:06.546Z,6.10
2019-02-02T20:40:35.798Z,6.10
2019-02-02T20:43:05.384Z,6.00
2019-02-02T20:45:35.685Z,6.10
2019-02-02T20:48:05.160Z,6.00
2019-02-02T20:50:34.406Z,6.00
2019-02-02T20:53:03.696Z,5.80
2019-02-02T20:55:35.941Z,5.80
2019-02-02T20:58:06.012Z,5.80
2019-02-02T21:00:35.345Z,5.60
2019-02-02T21:03:04.714Z,5.40
2019-02-02T21:05:33.870Z,5.20
2019-02-02T21:08:03.510Z,5.20
2019-02-02T21:10:32.752Z,5.30
2019-02-02T21:13:02.030Z,5.40
2019-02-02T21:15:31.222Z,5.50
2019-02-02T21:18:00.485Z,5.70
2019-02-02T21:20:29.894Z,5.50
2019-02-02T21:22:59.186Z,5.50
2019-02-02T21:25:28.341Z,5.40
2019-02-02T21:27:57.636Z,5.40
2019-02-02T21:30:28.907Z,5.50
2019-02-02T21:32:58.240Z,5.60
2019-02-02T21:35:27.508Z,5.70
2019-02-02T21:37:56.874Z,5.70
2019-02-02T21:40:30.734Z,5.60
2019-02-02T21:43:00.126Z,5.60
2019-02-02T21:45:29.387Z,5.60
2019-02-02T21:47:58.664Z,5.60
2019-02-02T21:50:27.952Z,5.50
2019-02-02T21:52:57.253Z,5.50
2019-02-02T21:55:27.604Z,5.50
2019-02-02T21:57:56.998Z,5.50
2019-02-02T22:00:31.816Z,5.50
2019-02-02T22:03:01.092Z,5.30
2019-02-02T22:05:30.332Z,5.20
2019-02-02T22:07:59.634Z,5.20
2019-02-02T22:10:28.813Z,5.30
2019-02-02T22:12:58.310Z,5.30
2019-02-02T22:15:27.694Z,5.30
2019-02-02T22:17:56.949Z,5.30
2019-02-02T22:20:26.126Z,5.20
2019-02-02T22:22:55.404Z,5.20
2019-02-02T22:25:27.020Z,5.10
2019-02-02T22:27:56.318Z,5.00
2019-02-02T22:30:27.583Z,4.90
2019-02-02T22:32:56.770Z,4.80
2019-02-02T22:35:25.954Z,4.80
2019-02-02T22:37:55.836Z,4.70
2019-02-02T22:40:25.797Z,4.70
2019-02-02T22:42:55.075Z,4.70
2019-02-02T22:45:24.554Z,4.60
2019-02-02T22:47:53.864Z,4.60
2019-02-02T22:50:24.622Z,4.60
2019-02-02T22:52:54.133Z,4.60
2019-02-02T22:55:23.474Z,4.60
2019-02-02T22:57:53.273Z,4.60
2019-02-02T23:01:24.884Z,4.60
2019-02-02T23:04:34.638Z,4.50
2019-02-02T23:07:32.149Z,4.50
2019-02-02T23:10:46.891Z,4.40
2019-02-02T23:13:47.643Z,4.40
2019-02-02T23:16:35.061Z,4.30
2019-02-02T23:19:07.159Z,4.40
2019-02-02T23:21:38.784Z,4.30
2019-02-02T23:24:11.271Z,4.40
2019-02-02T23:26:43.503Z,4.30
2019-02-02T23:29:14.640Z,4.40
2019-02-02T23:31:48.067Z,4.30
2019-02-02T23:34:23.688Z,4.40
2019-02-02T23:36:55.949Z,4.40
2019-02-02T23:39:28.561Z,4.30
2019-02-02T23:42:12.766Z,4.30
2019-02-02T23:44:47.389Z,4.40
2019-02-02T23:47:20.254Z,4.40
2019-02-02T23:49:50.880Z,4.30
2019-02-02T23:52:23.254Z,4.30
2019-02-02T23:54:56.270Z,4.40
2019-02-02T23:57:28.494Z,4.40
